sensor_id;sensor_type;location;lat;lon;timestamp;P1;durP1;ratioP1;P2;durP2;ratioP2
10721;SDS011;5412;59.450;18.124;2022-09-01T00:02:22;2.70;;;0.90;;
10721;SDS011;5412;59.450;18.124;2022-09-01T00:04:51;0.95;;;0.80;;
10721;SDS011;5412;59.450;18.124;2022-09-01T00:07:22;0.98;;;0.95;;
10721;SDS011;5412;59.450;18.124;2022-09-01T00:09:49;1.17;;;0.70;;
10721;SDS011;5412;59.450;18.124;2022-09-01T00:12:15;2.42;;;0.65;;
10721;SDS011;5412;59.450;18.124;2022-09-01T00:14:41;1.00;;;0.70;;
10721;SDS011;5412;59.450;18.124;2022-09-01T00:17:08;1.25;;;0.73;;
10721;SDS011;5412;59.450;18.124;2022-09-01T00:19:36;1.25;;;0.80;;
10721;SDS011;5412;59.450;18.124;2022-09-01T00:22:03;1.20;;;0.70;;
10721;SDS011;5412;59.450;18.124;2022-09-01T00:24:30;0.85;;;0.77;;
10721;SDS011;5412;59.450;18.124;2022-09-01T00:26:56;1.83;;;0.85;;
10721;SDS011;5412;59.450;18.124;2022-09-01T00:29:22;1.08;;;0.80;;
10721;SDS011;5412;59.450;18.124;2022-09-01T00:31:48;0.63;;;0.63;;
10721;SDS011;5412;59.450;18.124;2022-09-01T00:34:14;0.95;;;0.88;;
10721;SDS011;5412;59.450;18.124;2022-09-01T00:36:41;0.85;;;0.80;;
10721;SDS011;5412;59.450;18.124;2022-09-01T00:39:06;2.72;;;0.80;;
10721;SDS011;5412;59.450;18.124;2022-09-01T00:41:33;0.70;;;0.70;;
10721;SDS011;5412;59.450;18.124;2022-09-01T00:44:07;1.75;;;0.90;;
10721;SDS011;5412;59.450;18.124;2022-09-01T00:46:46;1.63;;;0.85;;
10721;SDS011;5412;59.450;18.124;2022-09-01T00:49:18;0.80;;;0.80;;
10721;SDS011;5412;59.450;18.124;2022-09-01T00:51:53;2.35;;;1.00;;
10721;SDS011;5412;59.450;18.124;2022-09-01T00:54:25;2.30;;;1.00;;
10721;SDS011;5412;59.450;18.124;2022-09-01T00:56:54;2.13;;;0.90;;
10721;SDS011;5412;59.450;18.124;2022-09-01T00:59:21;2.78;;;0.95;;
10721;SDS011;5412;59.450;18.124;2022-09-01T01:01:48;2.00;;;1.10;;
10721;SDS011;5412;59.450;18.124;2022-09-01T01:04:14;1.73;;;1.10;;
10721;SDS011;5412;59.450;18.124;2022-09-01T01:06:41;3.20;;;1.35;;
10721;SDS011;5412;59.450;18.124;2022-09-01T01:09:13;1.63;;;1.00;;
10721;SDS011;5412;59.450;18.124;2022-09-01T01:11:40;1.95;;;1.15;;
10721;SDS011;5412;59.450;18.124;2022-09-01T01:14:11;1.48;;;1.13;;
10721;SDS011;5412;59.450;18.124;2022-09-01T01:16:39;1.67;;;1.20;;
10721;SDS011;5412;59.450;18.124;2022-09-01T01:22:49;2.30;;;0.95;;
10721;SDS011;5412;59.450;18.124;2022-09-01T01:25:45;2.78;;;1.17;;
10721;SDS011;5412;59.450;18.124;2022-09-01T01:30:46;1.85;;;0.98;;
10721;SDS011;5412;59.450;18.124;2022-09-01T01:33:16;1.98;;;1.05;;
10721;SDS011;5412;59.450;18.124;2022-09-01T01:35:47;1.95;;;1.38;;
10721;SDS011;5412;59.450;18.124;2022-09-01T01:38:15;2.80;;;1.05;;
10721;SDS011;5412;59.450;18.124;2022-09-01T01:40:46;1.60;;;1.08;;
10721;SDS011;5412;59.450;18.124;2022-09-01T01:43:12;2.00;;;1.05;;
10721;SDS011;5412;59.450;18.124;2022-09-01T01:45:49;1.75;;;1.02;;
10721;SDS011;5412;59.450;18.124;2022-09-01T01:48:18;3.15;;;1.27;;
10721;SDS011;5412;59.450;18.124;2022-09-01T01:50:48;2.00;;;1.20;;
10721;SDS011;5412;59.450;18.124;2022-09-01T01:53:19;2.03;;;1.10;;
10721;SDS011;5412;59.450;18.124;2022-09-01T01:55:45;2.83;;;1.38;;
10721;SDS011;5412;59.450;18.124;2022-09-01T01:58:15;3.92;;;1.45;;
10721;SDS011;5412;59.450;18.124;2022-09-01T02:00:43;1.60;;;1.20;;
10721;SDS011;5412;59.450;18.124;2022-09-01T02:03:12;7.38;;;1.45;;
10721;SDS011;5412;59.450;18.124;2022-09-01T02:05:45;2.38;;;1.23;;
10721;SDS011;5412;59.450;18.124;2022-09-01T02:08:12;1.88;;;1.20;;
10721;SDS011;5412;59.450;18.124;2022-09-01T02:10:43;2.28;;;1.08;;
10721;SDS011;5412;59.450;18.124;2022-09-01T02:13:11;2.67;;;1.20;;
10721;SDS011;5412;59.450;18.124;2022-09-01T02:15:43;1.63;;;1.15;;
10721;SDS011;5412;59.450;18.124;2022-09-01T02:18:11;2.25;;;1.50;;
10721;SDS011;5412;59.450;18.124;2022-09-01T02:20:40;2.05;;;1.10;;
10721;SDS011;5412;59.450;18.124;2022-09-01T02:23:06;1.42;;;1.00;;
10721;SDS011;5412;59.450;18.124;2022-09-01T02:25:36;2.80;;;1.45;;
10721;SDS011;5412;59.450;18.124;2022-09-01T02:28:07;2.95;;;1.20;;
10721;SDS011;5412;59.450;18.124;2022-09-01T02:30:36;4.70;;;1.30;;
10721;SDS011;5412;59.450;18.124;2022-09-01T02:33:05;1.80;;;1.10;;
10721;SDS011;5412;59.450;18.124;2022-09-01T02:35:33;2.10;;;1.10;;
10721;SDS011;5412;59.450;18.124;2022-09-01T02:38:03;2.00;;;1.17;;
10721;SDS011;5412;59.450;18.124;2022-09-01T02:40:30;2.20;;;1.10;;
10721;SDS011;5412;59.450;18.124;2022-09-01T02:42:57;1.85;;;1.10;;
10721;SDS011;5412;59.450;18.124;2022-09-01T02:45:24;2.42;;;1.30;;
10721;SDS011;5412;59.450;18.124;2022-09-01T02:47:53;0.93;;;0.63;;
10721;SDS011;5412;59.450;18.124;2022-09-01T02:50:21;2.40;;;1.05;;
10721;SDS011;5412;59.450;18.124;2022-09-01T02:52:48;2.97;;;1.10;;
10721;SDS011;5412;59.450;18.124;2022-09-01T02:55:18;1.75;;;1.00;;
10721;SDS011;5412;59.450;18.124;2022-09-01T02:57:49;1.65;;;0.95;;
10721;SDS011;5412;59.450;18.124;2022-09-01T03:00:21;1.95;;;0.80;;
10721;SDS011;5412;59.450;18.124;2022-09-01T03:02:53;1.83;;;0.90;;
10721;SDS011;5412;59.450;18.124;2022-09-01T03:05:21;0.82;;;0.80;;
10721;SDS011;5412;59.450;18.124;2022-09-01T03:08:01;1.85;;;1.00;;
10721;SDS011;5412;59.450;18.124;2022-09-01T03:10:33;4.10;;;1.10;;
10721;SDS011;5412;59.450;18.124;2022-09-01T03:13:01;2.25;;;1.05;;
10721;SDS011;5412;59.450;18.124;2022-09-01T03:15:30;1.25;;;0.90;;
10721;SDS011;5412;59.450;18.124;2022-09-01T03:17:58;1.63;;;1.02;;
10721;SDS011;5412;59.450;18.124;2022-09-01T03:20:25;2.97;;;0.80;;
10721;SDS011;5412;59.450;18.124;2022-09-01T03:22:52;1.35;;;0.88;;
10721;SDS011;5412;59.450;18.124;2022-09-01T03:25:19;1.88;;;1.20;;
10721;SDS011;5412;59.450;18.124;2022-09-01T03:27:45;1.88;;;1.00;;
10721;SDS011;5412;59.450;18.124;2022-09-01T03:30:11;1.05;;;0.90;;
10721;SDS011;5412;59.450;18.124;2022-09-01T03:32:37;2.00;;;1.10;;
10721;SDS011;5412;59.450;18.124;2022-09-01T03:35:03;1.58;;;1.00;;
10721;SDS011;5412;59.450;18.124;2022-09-01T03:37:29;1.70;;;1.00;;
10721;SDS011;5412;59.450;18.124;2022-09-01T03:39:55;2.10;;;1.02;;
10721;SDS011;5412;59.450;18.124;2022-09-01T03:42:21;3.25;;;0.82;;
10721;SDS011;5412;59.450;18.124;2022-09-01T03:44:50;2.25;;;0.98;;
10721;SDS011;5412;59.450;18.124;2022-09-01T03:47:17;3.95;;;0.98;;
10721;SDS011;5412;59.450;18.124;2022-09-01T03:49:45;4.57;;;1.33;;
10721;SDS011;5412;59.450;18.124;2022-09-01T03:52:13;0.93;;;0.88;;
10721;SDS011;5412;59.450;18.124;2022-09-01T03:54:41;0.65;;;0.65;;
10721;SDS011;5412;59.450;18.124;2022-09-01T03:57:07;1.98;;;1.00;;
10721;SDS011;5412;59.450;18.124;2022-09-01T03:59:34;0.82;;;0.80;;
10721;SDS011;5412;59.450;18.124;2022-09-01T04:02:03;2.33;;;1.00;;
10721;SDS011;5412;59.450;18.124;2022-09-01T04:04:28;1.52;;;0.90;;
10721;SDS011;5412;59.450;18.124;2022-09-01T04:06:57;1.15;;;0.85;;
10721;SDS011;5412;59.450;18.124;2022-09-01T04:09:24;0.98;;;0.80;;
10721;SDS011;5412;59.450;18.124;2022-09-01T04:11:51;2.72;;;0.95;;
10721;SDS011;5412;59.450;18.124;2022-09-01T04:14:18;1.85;;;0.90;;
10721;SDS011;5412;59.450;18.124;2022-09-01T04:16:44;3.25;;;1.02;;
10721;SDS011;5412;59.450;18.124;2022-09-01T04:19:32;1.00;;;0.90;;
10721;SDS011;5412;59.450;18.124;2022-09-01T04:22:01;1.63;;;0.90;;
10721;SDS011;5412;59.450;18.124;2022-09-01T04:24:28;0.70;;;0.70;;
10721;SDS011;5412;59.450;18.124;2022-09-01T04:26:56;2.33;;;0.90;;
10721;SDS011;5412;59.450;18.124;2022-09-01T04:29:24;0.93;;;0.80;;
10721;SDS011;5412;59.450;18.124;2022-09-01T04:31:58;1.80;;;0.90;;
10721;SDS011;5412;59.450;18.124;2022-09-01T04:34:29;1.10;;;0.90;;
10721;SDS011;5412;59.450;18.124;2022-09-01T04:37:01;3.40;;;0.90;;
10721;SDS011;5412;59.450;18.124;2022-09-01T04:39:32;2.13;;;1.20;;
10721;SDS011;5412;59.450;18.124;2022-09-01T04:41:57;2.33;;;0.90;;
10721;SDS011;5412;59.450;18.124;2022-09-01T04:44:23;0.68;;;0.68;;
10721;SDS011;5412;59.450;18.124;2022-09-01T04:46:50;3.17;;;0.95;;
10721;SDS011;5412;59.450;18.124;2022-09-01T04:49:17;1.30;;;0.90;;
10721;SDS011;5412;59.450;18.124;2022-09-01T04:51:49;1.77;;;0.95;;
10721;SDS011;5412;59.450;18.124;2022-09-01T04:54:16;5.28;;;1.00;;
10721;SDS011;5412;59.450;18.124;2022-09-01T04:56:44;1.48;;;0.93;;
10721;SDS011;5412;59.450;18.124;2022-09-01T04:59:15;3.08;;;1.10;;
10721;SDS011;5412;59.450;18.124;2022-09-01T05:01:41;1.38;;;1.00;;
10721;SDS011;5412;59.450;18.124;2022-09-01T05:04:29;1.02;;;0.93;;
10721;SDS011;5412;59.450;18.124;2022-09-01T05:06:58;0.88;;;0.82;;
10721;SDS011;5412;59.450;18.124;2022-09-01T05:09:25;1.35;;;1.00;;
10721;SDS011;5412;59.450;18.124;2022-09-01T05:12:04;1.67;;;0.90;;
10721;SDS011;5412;59.450;18.124;2022-09-01T05:14:40;1.70;;;1.00;;
10721;SDS011;5412;59.450;18.124;2022-09-01T05:17:09;1.20;;;0.80;;
10721;SDS011;5412;59.450;18.124;2022-09-01T05:19:40;1.50;;;0.82;;
10721;SDS011;5412;59.450;18.124;2022-09-01T05:22:08;1.13;;;0.75;;
10721;SDS011;5412;59.450;18.124;2022-09-01T05:24:35;3.50;;;0.90;;
10721;SDS011;5412;59.450;18.124;2022-09-01T05:27:03;1.10;;;1.00;;
10721;SDS011;5412;59.450;18.124;2022-09-01T05:29:29;2.13;;;0.80;;
10721;SDS011;5412;59.450;18.124;2022-09-01T05:31:56;1.60;;;1.20;;
10721;SDS011;5412;59.450;18.124;2022-09-01T05:34:23;1.50;;;0.88;;
10721;SDS011;5412;59.450;18.124;2022-09-01T05:36:54;1.10;;;1.00;;
10721;SDS011;5412;59.450;18.124;2022-09-01T05:39:23;1.63;;;1.35;;
10721;SDS011;5412;59.450;18.124;2022-09-01T05:41:50;2.85;;;0.90;;
10721;SDS011;5412;59.450;18.124;2022-09-01T05:44:18;1.20;;;1.00;;
10721;SDS011;5412;59.450;18.124;2022-09-01T05:46:47;0.93;;;0.70;;
10721;SDS011;5412;59.450;18.124;2022-09-01T05:49:13;0.80;;;0.80;;
10721;SDS011;5412;59.450;18.124;2022-09-01T05:51:44;2.20;;;1.25;;
10721;SDS011;5412;59.450;18.124;2022-09-01T05:54:16;0.98;;;0.88;;
10721;SDS011;5412;59.450;18.124;2022-09-01T05:56:45;1.77;;;0.80;;
10721;SDS011;5412;59.450;18.124;2022-09-01T05:59:11;4.13;;;0.70;;
10721;SDS011;5412;59.450;18.124;2022-09-01T06:01:37;0.70;;;0.70;;
10721;SDS011;5412;59.450;18.124;2022-09-01T06:04:05;1.20;;;0.75;;
10721;SDS011;5412;59.450;18.124;2022-09-01T06:06:38;1.00;;;0.90;;
10721;SDS011;5412;59.450;18.124;2022-09-01T06:09:06;1.50;;;0.85;;
10721;SDS011;5412;59.450;18.124;2022-09-01T06:11:34;1.00;;;0.80;;
10721;SDS011;5412;59.450;18.124;2022-09-01T06:14:00;1.30;;;0.82;;
10721;SDS011;5412;59.450;18.124;2022-09-01T06:16:27;0.70;;;0.70;;
10721;SDS011;5412;59.450;18.124;2022-09-01T06:18:53;2.38;;;1.08;;
10721;SDS011;5412;59.450;18.124;2022-09-01T06:21:21;0.98;;;0.88;;
10721;SDS011;5412;59.450;18.124;2022-09-01T06:23:48;1.23;;;0.70;;
10721;SDS011;5412;59.450;18.124;2022-09-01T06:28:44;1.17;;;0.82;;
10721;SDS011;5412;59.450;18.124;2022-09-01T06:31:11;2.45;;;0.80;;
10721;SDS011;5412;59.450;18.124;2022-09-01T06:33:37;1.33;;;0.80;;
10721;SDS011;5412;59.450;18.124;2022-09-01T06:36:03;0.98;;;0.47;;
10721;SDS011;5412;59.450;18.124;2022-09-01T06:38:30;1.80;;;0.73;;
10721;SDS011;5412;59.450;18.124;2022-09-01T06:41:02;0.73;;;0.73;;
10721;SDS011;5412;59.450;18.124;2022-09-01T06:43:34;2.67;;;0.80;;
10721;SDS011;5412;59.450;18.124;2022-09-01T06:46:01;0.65;;;0.65;;
10721;SDS011;5412;59.450;18.124;2022-09-01T06:48:26;1.42;;;0.60;;
10721;SDS011;5412;59.450;18.124;2022-09-01T06:50:54;2.38;;;0.70;;
10721;SDS011;5412;59.450;18.124;2022-09-01T06:53:23;0.60;;;0.60;;
10721;SDS011;5412;59.450;18.124;2022-09-01T06:55:49;1.02;;;0.70;;
10721;SDS011;5412;59.450;18.124;2022-09-01T06:58:16;0.88;;;0.70;;
10721;SDS011;5412;59.450;18.124;2022-09-01T07:00:42;1.60;;;0.82;;
10721;SDS011;5412;59.450;18.124;2022-09-01T07:03:09;1.25;;;0.60;;
10721;SDS011;5412;59.450;18.124;2022-09-01T07:05:41;1.20;;;0.80;;
10721;SDS011;5412;59.450;18.124;2022-09-01T07:08:10;1.35;;;0.60;;
10721;SDS011;5412;59.450;18.124;2022-09-01T07:10:45;0.60;;;0.60;;
10721;SDS011;5412;59.450;18.124;2022-09-01T07:13:14;1.08;;;0.60;;
10721;SDS011;5412;59.450;18.124;2022-09-01T07:15:52;0.93;;;0.65;;
10721;SDS011;5412;59.450;18.124;2022-09-01T07:18:19;1.00;;;0.43;;
10721;SDS011;5412;59.450;18.124;2022-09-01T07:20:48;0.60;;;0.60;;
10721;SDS011;5412;59.450;18.124;2022-09-01T07:23:15;0.60;;;0.55;;
10721;SDS011;5412;59.450;18.124;2022-09-01T07:25:42;1.80;;;1.08;;
10721;SDS011;5412;59.450;18.124;2022-09-01T07:28:09;0.60;;;0.60;;
10721;SDS011;5412;59.450;18.124;2022-09-01T07:30:47;1.23;;;0.55;;
10721;SDS011;5412;59.450;18.124;2022-09-01T07:33:16;0.93;;;0.40;;
10721;SDS011;5412;59.450;18.124;2022-09-01T07:35:44;0.63;;;0.40;;
10721;SDS011;5412;59.450;18.124;2022-09-01T07:38:11;0.63;;;0.50;;
10721;SDS011;5412;59.450;18.124;2022-09-01T07:40:37;3.55;;;0.55;;
10721;SDS011;5412;59.450;18.124;2022-09-01T07:43:08;0.60;;;0.50;;
10721;SDS011;5412;59.450;18.124;2022-09-01T07:45:46;1.52;;;0.57;;
10721;SDS011;5412;59.450;18.124;2022-09-01T07:48:13;1.83;;;0.52;;
10721;SDS011;5412;59.450;18.124;2022-09-01T07:50:45;1.40;;;0.52;;
10721;SDS011;5412;59.450;18.124;2022-09-01T07:53:16;0.77;;;0.68;;
10721;SDS011;5412;59.450;18.124;2022-09-01T07:55:47;1.30;;;0.50;;
10721;SDS011;5412;59.450;18.124;2022-09-01T07:58:16;2.50;;;0.65;;
10721;SDS011;5412;59.450;18.124;2022-09-01T08:00:43;0.68;;;0.45;;
10721;SDS011;5412;59.450;18.124;2022-09-01T08:03:14;3.75;;;0.60;;
10721;SDS011;5412;59.450;18.124;2022-09-01T08:05:42;1.88;;;0.75;;
10721;SDS011;5412;59.450;18.124;2022-09-01T08:08:08;0.47;;;0.47;;
10721;SDS011;5412;59.450;18.124;2022-09-01T08:10:38;0.75;;;0.47;;
10721;SDS011;5412;59.450;18.124;2022-09-01T08:13:04;0.50;;;0.50;;
10721;SDS011;5412;59.450;18.124;2022-09-01T08:15:31;0.50;;;0.40;;
10721;SDS011;5412;59.450;18.124;2022-09-01T08:17:56;2.92;;;0.60;;
10721;SDS011;5412;59.450;18.124;2022-09-01T08:20:22;2.20;;;0.70;;
10721;SDS011;5412;59.450;18.124;2022-09-01T08:22:47;1.27;;;0.55;;
10721;SDS011;5412;59.450;18.124;2022-09-01T08:25:13;0.40;;;0.40;;
10721;SDS011;5412;59.450;18.124;2022-09-01T08:27:40;0.98;;;0.88;;
10721;SDS011;5412;59.450;18.124;2022-09-01T08:30:06;0.65;;;0.57;;
10721;SDS011;5412;59.450;18.124;2022-09-01T08:32:35;0.98;;;0.55;;
10721;SDS011;5412;59.450;18.124;2022-09-01T08:35:01;1.67;;;0.50;;
10721;SDS011;5412;59.450;18.124;2022-09-01T08:37:29;0.65;;;0.60;;
10721;SDS011;5412;59.450;18.124;2022-09-01T08:39:55;2.22;;;0.50;;
10721;SDS011;5412;59.450;18.124;2022-09-01T08:45:24;1.38;;;0.52;;
10721;SDS011;5412;59.450;18.124;2022-09-01T08:48:01;1.08;;;0.50;;
10721;SDS011;5412;59.450;18.124;2022-09-01T08:50:48;0.50;;;0.50;;
10721;SDS011;5412;59.450;18.124;2022-09-01T08:53:21;3.35;;;0.60;;
10721;SDS011;5412;59.450;18.124;2022-09-01T08:55:56;0.77;;;0.50;;
10721;SDS011;5412;59.450;18.124;2022-09-01T08:58:23;1.15;;;0.55;;
10721;SDS011;5412;59.450;18.124;2022-09-01T09:00:55;1.33;;;0.55;;
10721;SDS011;5412;59.450;18.124;2022-09-01T09:03:45;1.05;;;0.60;;
10721;SDS011;5412;59.450;18.124;2022-09-01T09:06:32;0.50;;;0.50;;
10721;SDS011;5412;59.450;18.124;2022-09-01T09:09:04;0.60;;;0.60;;
10721;SDS011;5412;59.450;18.124;2022-09-01T09:14:17;0.20;;;0.20;;
10721;SDS011;5412;59.450;18.124;2022-09-01T09:16:48;4.28;;;0.57;;
10721;SDS011;5412;59.450;18.124;2022-09-01T09:19:23;1.08;;;0.50;;
10721;SDS011;5412;59.450;18.124;2022-09-01T09:21:55;0.88;;;0.45;;
10721;SDS011;5412;59.450;18.124;2022-09-01T09:27:21;2.03;;;0.50;;
10721;SDS011;5412;59.450;18.124;2022-09-01T09:29:49;1.40;;;0.50;;
10721;SDS011;5412;59.450;18.124;2022-09-01T09:32:18;0.32;;;0.32;;
10721;SDS011;5412;59.450;18.124;2022-09-01T09:34:45;0.40;;;0.40;;
10721;SDS011;5412;59.450;18.124;2022-09-01T09:37:25;1.13;;;0.57;;
10721;SDS011;5412;59.450;18.124;2022-09-01T09:42:40;0.30;;;0.30;;
10721;SDS011;5412;59.450;18.124;2022-09-01T09:45:26;0.40;;;0.40;;
10721;SDS011;5412;59.450;18.124;2022-09-01T09:47:53;0.30;;;0.30;;
10721;SDS011;5412;59.450;18.124;2022-09-01T09:52:50;1.05;;;0.50;;
10721;SDS011;5412;59.450;18.124;2022-09-01T09:55:22;0.52;;;0.45;;
10721;SDS011;5412;59.450;18.124;2022-09-01T09:57:52;0.40;;;0.40;;
10721;SDS011;5412;59.450;18.124;2022-09-01T10:00:30;2.20;;;0.80;;
10721;SDS011;5412;59.450;18.124;2022-09-01T10:03:02;0.40;;;0.40;;
10721;SDS011;5412;59.450;18.124;2022-09-01T10:08:11;1.52;;;0.60;;
10721;SDS011;5412;59.450;18.124;2022-09-01T10:11:02;0.30;;;0.30;;
10721;SDS011;5412;59.450;18.124;2022-09-01T10:13:29;0.40;;;0.40;;
10721;SDS011;5412;59.450;18.124;2022-09-01T10:16:04;1.85;;;0.50;;
10721;SDS011;5412;59.450;18.124;2022-09-01T10:18:43;0.95;;;0.50;;
10721;SDS011;5412;59.450;18.124;2022-09-01T10:21:15;0.60;;;0.50;;
10721;SDS011;5412;59.450;18.124;2022-09-01T10:24:00;0.30;;;0.30;;
10721;SDS011;5412;59.450;18.124;2022-09-01T10:26:34;0.85;;;0.50;;
10721;SDS011;5412;59.450;18.124;2022-09-01T10:29:14;0.30;;;0.30;;
10721;SDS011;5412;59.450;18.124;2022-09-01T10:31:53;0.38;;;0.38;;
10721;SDS011;5412;59.450;18.124;2022-09-01T10:34:20;0.30;;;0.30;;
10721;SDS011;5412;59.450;18.124;2022-09-01T10:36:46;0.28;;;0.28;;
10721;SDS011;5412;59.450;18.124;2022-09-01T10:39:14;0.57;;;0.50;;
10721;SDS011;5412;59.450;18.124;2022-09-01T10:41:54;0.35;;;0.30;;
10721;SDS011;5412;59.450;18.124;2022-09-01T10:44:26;0.30;;;0.30;;
10721;SDS011;5412;59.450;18.124;2022-09-01T10:47:02;0.30;;;0.30;;
10721;SDS011;5412;59.450;18.124;2022-09-01T10:55:14;1.45;;;0.40;;
10721;SDS011;5412;59.450;18.124;2022-09-01T11:30:16;0.25;;;0.25;;
10721;SDS011;5412;59.450;18.124;2022-09-01T11:32:48;0.45;;;0.40;;
10721;SDS011;5412;59.450;18.124;2022-09-01T11:35:18;0.30;;;0.30;;
10721;SDS011;5412;59.450;18.124;2022-09-01T11:37:48;7.30;;;0.47;;
10721;SDS011;5412;59.450;18.124;2022-09-01T11:40:23;0.30;;;0.30;;
10721;SDS011;5412;59.450;18.124;2022-09-01T11:42:51;0.68;;;0.20;;
10721;SDS011;5412;59.450;18.124;2022-09-01T11:45:24;0.20;;;0.20;;
10721;SDS011;5412;59.450;18.124;2022-09-01T11:47:53;0.35;;;0.35;;
10721;SDS011;5412;59.450;18.124;2022-09-01T11:50:32;2.88;;;0.30;;
10721;SDS011;5412;59.450;18.124;2022-09-01T11:53:07;0.30;;;0.30;;
10721;SDS011;5412;59.450;18.124;2022-09-01T11:55:37;0.57;;;0.30;;
10721;SDS011;5412;59.450;18.124;2022-09-01T11:58:09;0.30;;;0.30;;
10721;SDS011;5412;59.450;18.124;2022-09-01T12:01:20;0.70;;;0.22;;
10721;SDS011;5412;59.450;18.124;2022-09-01T12:03:55;0.65;;;0.32;;
10721;SDS011;5412;59.450;18.124;2022-09-01T12:06:26;1.40;;;0.50;;
10721;SDS011;5412;59.450;18.124;2022-09-01T12:09:03;0.20;;;0.20;;
10721;SDS011;5412;59.450;18.124;2022-09-01T12:11:30;0.30;;;0.30;;
10721;SDS011;5412;59.450;18.124;2022-09-01T12:14:07;0.30;;;0.30;;
10721;SDS011;5412;59.450;18.124;2022-09-01T12:16:35;0.20;;;0.20;;
10721;SDS011;5412;59.450;18.124;2022-09-01T12:19:04;0.50;;;0.50;;
10721;SDS011;5412;59.450;18.124;2022-09-01T12:21:31;0.30;;;0.30;;
10721;SDS011;5412;59.450;18.124;2022-09-01T12:24:20;0.98;;;0.60;;
10721;SDS011;5412;59.450;18.124;2022-09-01T12:26:52;0.40;;;0.40;;
10721;SDS011;5412;59.450;18.124;2022-09-01T12:29:21;0.40;;;0.30;;
10721;SDS011;5412;59.450;18.124;2022-09-01T12:31:48;0.70;;;0.50;;
10721;SDS011;5412;59.450;18.124;2022-09-01T12:34:23;1.30;;;0.40;;
10721;SDS011;5412;59.450;18.124;2022-09-01T12:44:46;0.60;;;0.40;;
10721;SDS011;5412;59.450;18.124;2022-09-01T12:52:26;0.60;;;0.43;;
10721;SDS011;5412;59.450;18.124;2022-09-01T12:57:31;0.38;;;0.35;;
10721;SDS011;5412;59.450;18.124;2022-09-01T13:03:03;1.67;;;0.50;;
10721;SDS011;5412;59.450;18.124;2022-09-01T13:05:42;0.65;;;0.43;;
10721;SDS011;5412;59.450;18.124;2022-09-01T13:08:16;0.65;;;0.43;;
10721;SDS011;5412;59.450;18.124;2022-09-01T13:10:48;3.63;;;0.35;;
10721;SDS011;5412;59.450;18.124;2022-09-01T13:13:17;0.57;;;0.38;;
10721;SDS011;5412;59.450;18.124;2022-09-01T13:15:44;0.57;;;0.50;;
10721;SDS011;5412;59.450;18.124;2022-09-01T13:18:12;0.40;;;0.40;;
10721;SDS011;5412;59.450;18.124;2022-09-01T13:20:38;0.68;;;0.40;;
10721;SDS011;5412;59.450;18.124;2022-09-01T13:23:06;0.30;;;0.30;;
10721;SDS011;5412;59.450;18.124;2022-09-01T13:25:32;0.30;;;0.30;;
10721;SDS011;5412;59.450;18.124;2022-09-01T13:27:57;0.55;;;0.40;;
10721;SDS011;5412;59.450;18.124;2022-09-01T13:30:24;0.55;;;0.45;;
10721;SDS011;5412;59.450;18.124;2022-09-01T13:32:54;1.17;;;0.40;;
10721;SDS011;5412;59.450;18.124;2022-09-01T13:35:22;0.80;;;0.40;;
10721;SDS011;5412;59.450;18.124;2022-09-01T13:37:48;0.32;;;0.32;;
10721;SDS011;5412;59.450;18.124;2022-09-01T13:40:15;0.50;;;0.50;;
10721;SDS011;5412;59.450;18.124;2022-09-01T13:42:45;0.40;;;0.40;;
10721;SDS011;5412;59.450;18.124;2022-09-01T13:45:12;0.30;;;0.30;;
10721;SDS011;5412;59.450;18.124;2022-09-01T13:47:41;0.40;;;0.40;;
10721;SDS011;5412;59.450;18.124;2022-09-01T13:50:08;1.77;;;0.50;;
10721;SDS011;5412;59.450;18.124;2022-09-01T13:52:47;2.28;;;0.68;;
10721;SDS011;5412;59.450;18.124;2022-09-01T13:55:20;0.68;;;0.60;;
10721;SDS011;5412;59.450;18.124;2022-09-01T13:57:47;0.50;;;0.50;;
10721;SDS011;5412;59.450;18.124;2022-09-01T14:00:14;0.40;;;0.40;;
10721;SDS011;5412;59.450;18.124;2022-09-01T14:02:43;0.40;;;0.40;;
10721;SDS011;5412;59.450;18.124;2022-09-01T14:05:15;0.82;;;0.65;;
10721;SDS011;5412;59.450;18.124;2022-09-01T14:07:42;0.45;;;0.40;;
10721;SDS011;5412;59.450;18.124;2022-09-01T14:10:08;0.70;;;0.50;;
10721;SDS011;5412;59.450;18.124;2022-09-01T14:12:35;1.17;;;0.63;;
10721;SDS011;5412;59.450;18.124;2022-09-01T14:15:02;0.40;;;0.32;;
10721;SDS011;5412;59.450;18.124;2022-09-01T14:17:28;0.68;;;0.50;;
10721;SDS011;5412;59.450;18.124;2022-09-01T14:19:54;0.40;;;0.40;;
10721;SDS011;5412;59.450;18.124;2022-09-01T14:22:21;1.90;;;0.57;;
10721;SDS011;5412;59.450;18.124;2022-09-01T14:24:47;0.40;;;0.40;;
10721;SDS011;5412;59.450;18.124;2022-09-01T14:27:13;0.60;;;0.50;;
10721;SDS011;5412;59.450;18.124;2022-09-01T14:29:38;0.40;;;0.40;;
10721;SDS011;5412;59.450;18.124;2022-09-01T14:32:04;1.40;;;0.50;;
10721;SDS011;5412;59.450;18.124;2022-09-01T14:34:31;0.55;;;0.50;;
10721;SDS011;5412;59.450;18.124;2022-09-01T14:36:58;0.50;;;0.50;;
10721;SDS011;5412;59.450;18.124;2022-09-01T14:39:24;0.43;;;0.43;;
10721;SDS011;5412;59.450;18.124;2022-09-01T14:41:50;0.50;;;0.40;;
10721;SDS011;5412;59.450;18.124;2022-09-01T14:44:16;0.50;;;0.50;;
10721;SDS011;5412;59.450;18.124;2022-09-01T14:46:41;0.63;;;0.32;;
10721;SDS011;5412;59.450;18.124;2022-09-01T14:49:08;1.65;;;0.30;;
10721;SDS011;5412;59.450;18.124;2022-09-01T14:51:35;0.82;;;0.60;;
10721;SDS011;5412;59.450;18.124;2022-09-01T14:54:02;1.50;;;0.68;;
10721;SDS011;5412;59.450;18.124;2022-09-01T14:56:28;0.75;;;0.70;;
10721;SDS011;5412;59.450;18.124;2022-09-01T14:58:54;1.10;;;0.50;;
10721;SDS011;5412;59.450;18.124;2022-09-01T15:01:24;0.50;;;0.50;;
10721;SDS011;5412;59.450;18.124;2022-09-01T15:03:51;0.52;;;0.52;;
10721;SDS011;5412;59.450;18.124;2022-09-01T15:06:18;6.25;;;0.60;;
10721;SDS011;5412;59.450;18.124;2022-09-01T15:08:45;1.08;;;0.50;;
10721;SDS011;5412;59.450;18.124;2022-09-01T15:11:15;0.60;;;0.60;;
10721;SDS011;5412;59.450;18.124;2022-09-01T15:13:42;2.17;;;0.80;;
10721;SDS011;5412;59.450;18.124;2022-09-01T15:16:13;0.38;;;0.38;;
10721;SDS011;5412;59.450;18.124;2022-09-01T15:18:40;0.50;;;0.50;;
10721;SDS011;5412;59.450;18.124;2022-09-01T15:21:06;0.50;;;0.50;;
10721;SDS011;5412;59.450;18.124;2022-09-01T15:23:33;1.80;;;0.63;;
10721;SDS011;5412;59.450;18.124;2022-09-01T15:25:59;2.15;;;0.80;;
10721;SDS011;5412;59.450;18.124;2022-09-01T15:28:25;0.32;;;0.32;;
10721;SDS011;5412;59.450;18.124;2022-09-01T15:30:51;0.50;;;0.50;;
10721;SDS011;5412;59.450;18.124;2022-09-01T15:33:18;1.52;;;0.70;;
10721;SDS011;5412;59.450;18.124;2022-09-01T15:35:45;0.90;;;0.60;;
10721;SDS011;5412;59.450;18.124;2022-09-01T15:38:11;0.30;;;0.30;;
10721;SDS011;5412;59.450;18.124;2022-09-01T15:40:40;0.32;;;0.32;;
10721;SDS011;5412;59.450;18.124;2022-09-01T15:43:06;0.50;;;0.50;;
10721;SDS011;5412;59.450;18.124;2022-09-01T15:45:32;1.13;;;0.40;;
10721;SDS011;5412;59.450;18.124;2022-09-01T15:47:58;0.50;;;0.50;;
10721;SDS011;5412;59.450;18.124;2022-09-01T15:50:25;1.98;;;0.50;;
10721;SDS011;5412;59.450;18.124;2022-09-01T15:52:52;1.58;;;0.65;;
10721;SDS011;5412;59.450;18.124;2022-09-01T15:55:22;0.30;;;0.30;;
10721;SDS011;5412;59.450;18.124;2022-09-01T15:57:51;0.90;;;0.40;;
10721;SDS011;5412;59.450;18.124;2022-09-01T16:00:23;0.73;;;0.60;;
10721;SDS011;5412;59.450;18.124;2022-09-01T16:02:50;0.57;;;0.35;;
10721;SDS011;5412;59.450;18.124;2022-09-01T16:05:18;0.93;;;0.43;;
10721;SDS011;5412;59.450;18.124;2022-09-01T16:07:44;0.50;;;0.50;;
10721;SDS011;5412;59.450;18.124;2022-09-01T16:10:12;0.63;;;0.50;;
10721;SDS011;5412;59.450;18.124;2022-09-01T16:12:39;0.52;;;0.45;;
10721;SDS011;5412;59.450;18.124;2022-09-01T16:15:15;0.73;;;0.52;;
10721;SDS011;5412;59.450;18.124;2022-09-01T16:20:44;0.57;;;0.57;;
10721;SDS011;5412;59.450;18.124;2022-09-01T16:23:51;2.85;;;0.50;;
10721;SDS011;5412;59.450;18.124;2022-09-01T16:26:17;0.50;;;0.50;;
10721;SDS011;5412;59.450;18.124;2022-09-01T16:28:52;1.58;;;0.47;;